createdAt,value
2018-12-26T00:01:29.264Z,98.25
2018-12-26T00:04:00.605Z,99.75
2018-12-26T00:06:32.983Z,87.50
2018-12-26T00:09:06.142Z,99.75
2018-12-26T00:11:37.623Z,98.00
2018-12-26T00:14:09.470Z,89.75
2018-12-26T00:16:40.847Z,96.50
2018-12-26T00:19:12.187Z,98.25
2018-12-26T00:21:43.442Z,97.00
2018-12-26T00:24:15.602Z,98.00
2018-12-26T00:26:51.338Z,102.25
2018-12-26T00:29:23.083Z,97.50
2018-12-26T00:31:54.595Z,96.75
2018-12-26T00:34:26.228Z,90.25
2018-12-26T00:36:57.615Z,98.25
2018-12-26T00:39:29.404Z,99.00
2018-12-26T00:42:00.828Z,98.50
2018-12-26T00:44:32.535Z,106.75
2018-12-26T00:47:03.844Z,101.00
2018-12-26T00:49:35.649Z,94.75
2018-12-26T00:52:06.810Z,102.00
2018-12-26T00:54:38.816Z,101.50
2018-12-26T00:57:10.356Z,96.50
2018-12-26T00:59:42.036Z,103.50
2018-12-26T01:02:13.390Z,109.50
2018-12-26T01:04:44.632Z,113.25
2018-12-26T01:07:15.967Z,117.00
2018-12-26T01:09:47.392Z,116.75
2018-12-26T01:12:19.044Z,108.25
2018-12-26T01:14:50.922Z,113.00
2018-12-26T01:17:23.347Z,116.00
2018-12-26T01:19:54.974Z,126.75
2018-12-26T01:22:26.458Z,120.75
2018-12-26T01:24:58.323Z,109.50
2018-12-26T01:27:29.817Z,131.50
2018-12-26T01:30:01.226Z,119.50
2018-12-26T01:32:32.626Z,136.00
2018-12-26T01:35:04.081Z,135.25
2018-12-26T01:37:36.779Z,152.25
2018-12-26T01:40:08.149Z,148.25
2018-12-26T01:42:39.580Z,154.75
2018-12-26T01:45:10.881Z,155.25
2018-12-26T01:47:42.069Z,147.25
2018-12-26T01:50:13.608Z,157.75
2018-12-26T01:52:44.946Z,155.00
2018-12-26T01:55:16.879Z,190.25
2018-12-26T01:57:48.440Z,184.75
2018-12-26T02:00:20.087Z,161.50
2018-12-26T02:02:51.367Z,153.25
2018-12-26T02:05:22.775Z,161.25
2018-12-26T02:07:54.168Z,181.75
2018-12-26T02:10:25.611Z,179.00
2018-12-26T02:12:57.264Z,200.25
2018-12-26T02:15:29.545Z,191.50
2018-12-26T02:18:01.024Z,203.25
2018-12-26T02:20:33.825Z,224.40
2018-12-26T02:23:05.521Z,151.75
2018-12-26T02:25:37.306Z,172.50
2018-12-26T02:28:08.695Z,175.50
2018-12-26T02:30:39.892Z,196.50
2018-12-26T02:33:11.431Z,190.00
2018-12-26T02:35:42.857Z,195.25
2018-12-26T02:38:14.092Z,212.25
2018-12-26T02:40:45.651Z,214.00
2018-12-26T02:43:17.060Z,217.60
2018-12-26T02:45:48.636Z,216.20
2018-12-26T02:48:20.300Z,226.60
2018-12-26T02:50:51.709Z,233.00
2018-12-26T02:53:23.024Z,229.00
2018-12-26T02:55:55.079Z,210.60
2018-12-26T02:58:26.621Z,215.20
2018-12-26T03:00:58.294Z,204.25
2018-12-26T03:03:30.484Z,200.25
2018-12-26T03:06:02.202Z,204.25
2018-12-26T03:08:33.542Z,196.50
2018-12-26T03:11:05.001Z,204.75
2018-12-26T03:13:36.618Z,196.00
2018-12-26T03:16:08.099Z,185.50
2018-12-26T03:18:39.410Z,184.50
2018-12-26T03:21:10.805Z,188.00
2018-12-26T03:23:42.029Z,185.25
2018-12-26T03:26:13.877Z,196.50
2018-12-26T03:28:45.180Z,193.75
2018-12-26T03:31:17.078Z,211.25
2018-12-26T03:33:48.693Z,215.25
2018-12-26T03:36:19.971Z,210.00
2018-12-26T03:38:51.665Z,212.00
2018-12-26T03:41:23.646Z,207.50
2018-12-26T03:43:54.903Z,215.00
2018-12-26T03:46:26.748Z,206.00
2018-12-26T03:48:58.006Z,184.00
2018-12-26T03:51:29.544Z,173.00
2018-12-26T03:54:01.264Z,185.25
2018-12-26T03:56:32.802Z,190.50
2018-12-26T03:59:04.275Z,189.00
2018-12-26T04:01:35.825Z,195.00
2018-12-26T04:04:07.404Z,198.75
2018-12-26T04:06:39.283Z,187.00
2018-12-26T04:09:11.059Z,182.00
2018-12-26T04:11:42.286Z,180.50
2018-12-26T04:14:13.786Z,164.50
2018-12-26T04:16:45.944Z,153.50
2018-12-26T04:19:17.123Z,133.25
2018-12-26T04:21:48.741Z,134.75
2018-12-26T04:24:19.853Z,136.50
2018-12-26T04:26:51.884Z,124.75
2018-12-26T04:29:23.501Z,122.75
2018-12-26T04:31:55.047Z,115.00
2018-12-26T04:34:26.370Z,112.50
2018-12-26T04:36:57.951Z,118.00
2018-12-26T04:39:29.207Z,108.50
2018-12-26T04:42:00.819Z,109.25
2018-12-26T04:44:32.405Z,110.00
2018-12-26T04:47:03.884Z,99.75
2018-12-26T04:49:35.719Z,96.75
2018-12-26T04:52:07.000Z,99.75
2018-12-26T04:54:38.425Z,102.50
2018-12-26T04:57:10.290Z,108.00
2018-12-26T04:59:41.921Z,107.25
2018-12-26T05:02:13.580Z,109.25
2018-12-26T05:04:45.253Z,99.50
2018-12-26T05:07:16.809Z,104.50
2018-12-26T05:09:48.302Z,104.00
2018-12-26T05:12:20.125Z,95.00
2018-12-26T05:14:51.795Z,110.00
2018-12-26T05:17:23.924Z,92.75
2018-12-26T05:19:55.350Z,105.25
2018-12-26T05:22:26.907Z,120.00
2018-12-26T05:24:58.422Z,129.25
2018-12-26T05:27:34.303Z,135.75
2018-12-26T05:30:05.051Z,133.00
2018-12-26T05:32:36.679Z,135.50
2018-12-26T05:35:08.397Z,119.25
2018-12-26T05:37:39.988Z,112.00
2018-12-26T05:40:11.571Z,110.75
2018-12-26T05:42:43.132Z,114.75
2018-12-26T05:45:16.023Z,114.25
2018-12-26T05:47:47.645Z,105.25
2018-12-26T05:50:19.331Z,96.50
2018-12-26T05:52:50.953Z,102.25
2018-12-26T05:55:22.623Z,105.75
2018-12-26T05:57:54.847Z,100.50
2018-12-26T06:00:26.569Z,93.25
2018-12-26T06:02:58.200Z,102.75
2018-12-26T06:05:29.890Z,113.00
2018-12-26T06:08:01.713Z,68.40
2018-12-26T06:10:33.357Z,97.00
2018-12-26T06:13:04.867Z,90.40
2018-12-26T06:15:38.128Z,93.80
2018-12-26T06:18:09.994Z,88.00
2018-12-26T06:20:41.658Z,103.75
2018-12-26T06:23:13.318Z,96.75
2018-12-26T06:25:44.731Z,90.80
2018-12-26T06:28:16.741Z,99.50
2018-12-26T06:30:48.423Z,98.25
2018-12-26T06:33:20.028Z,86.20
2018-12-26T06:35:51.868Z,94.80
2018-12-26T06:38:23.320Z,87.20
2018-12-26T06:40:55.987Z,88.20
2018-12-26T06:43:27.541Z,90.80
2018-12-26T06:46:02.652Z,86.80
2018-12-26T06:48:48.384Z,87.20
2018-12-26T06:51:25.709Z,80.20
2018-12-26T06:53:57.393Z,75.20
2018-12-26T06:56:28.946Z,74.20
2018-12-26T06:59:00.800Z,73.20
2018-12-26T07:01:32.089Z,88.80
2018-12-26T07:04:03.568Z,82.80
2018-12-26T07:06:35.024Z,84.80
2018-12-26T07:09:07.954Z,82.60
2018-12-26T07:11:39.379Z,71.60
2018-12-26T07:14:10.581Z,85.00
2018-12-26T07:16:42.023Z,77.60
2018-12-26T07:19:13.904Z,87.20
2018-12-26T07:21:45.346Z,76.20
2018-12-26T07:24:16.631Z,68.40
2018-12-26T07:26:48.061Z,67.00
2018-12-26T07:29:19.875Z,95.60
2018-12-26T07:31:51.342Z,82.40
2018-12-26T07:34:22.843Z,69.00
2018-12-26T07:36:54.221Z,63.00
2018-12-26T07:39:25.558Z,77.00
2018-12-26T07:41:56.914Z,59.20
2018-12-26T07:44:44.166Z,74.00
2018-12-26T07:47:15.656Z,74.40
2018-12-26T07:49:47.074Z,67.40
2018-12-26T07:52:18.543Z,66.00
2018-12-26T07:54:49.860Z,65.20
2018-12-26T07:57:21.206Z,71.00
2018-12-26T07:59:53.305Z,73.60
2018-12-26T08:02:24.514Z,70.20
2018-12-26T08:04:56.557Z,80.40
2018-12-26T08:07:27.872Z,74.00
2018-12-26T08:09:59.464Z,79.60
2018-12-26T08:12:30.745Z,83.60
2018-12-26T08:15:10.165Z,76.80
2018-12-26T08:17:35.337Z,78.60
2018-12-26T08:20:07.865Z,77.40
2018-12-26T08:22:39.198Z,83.00
2018-12-26T08:25:10.614Z,76.80
2018-12-26T08:27:42.068Z,77.40
2018-12-26T08:30:14.089Z,80.80
2018-12-26T08:32:45.364Z,76.00
2018-12-26T08:35:16.644Z,72.80
2018-12-26T08:37:47.898Z,76.40
2018-12-26T08:40:19.079Z,84.00
2018-12-26T08:42:50.641Z,83.60
2018-12-26T08:45:21.978Z,87.20
2018-12-26T08:47:53.146Z,84.20
2018-12-26T08:50:25.411Z,89.60
2018-12-26T08:52:56.696Z,79.40
2018-12-26T08:55:27.878Z,77.60
2018-12-26T08:58:01.781Z,72.40
2018-12-26T09:00:33.548Z,77.60
2018-12-26T09:03:04.849Z,78.00
2018-12-26T09:05:36.465Z,80.40
2018-12-26T09:08:07.904Z,73.40
2018-12-26T09:10:39.438Z,70.80
2018-12-26T09:13:10.889Z,69.00
2018-12-26T09:15:42.803Z,60.80
2018-12-26T09:18:15.056Z,62.80
2018-12-26T09:20:47.160Z,69.80
2018-12-26T09:23:18.832Z,64.00
2018-12-26T09:25:55.544Z,64.60
2018-12-26T09:28:28.506Z,66.80
2018-12-26T09:31:00.523Z,73.60
2018-12-26T09:33:31.829Z,71.80
2018-12-26T09:36:03.272Z,69.80
2018-12-26T09:38:35.173Z,66.00
2018-12-26T09:41:06.922Z,62.80
2018-12-26T09:43:38.350Z,65.20
2018-12-26T09:46:09.777Z,68.80
2018-12-26T09:48:41.422Z,68.60
2018-12-26T09:51:13.041Z,69.80
2018-12-26T09:53:44.317Z,66.80
2018-12-26T09:56:45.454Z,68.40
2018-12-26T09:59:17.203Z,68.60
2018-12-26T10:01:49.231Z,64.00
2018-12-26T10:04:22.177Z,66.60
2018-12-26T10:06:53.767Z,64.20
2018-12-26T10:09:25.240Z,65.80
2018-12-26T10:11:56.828Z,61.40
2018-12-26T10:14:28.542Z,63.40
2018-12-26T10:17:00.155Z,66.20
2018-12-26T10:19:31.674Z,62.20
2018-12-26T10:22:03.538Z,67.60
2018-12-26T10:24:35.197Z,66.80
2018-12-26T10:27:06.869Z,74.80
2018-12-26T10:29:38.324Z,66.20
2018-12-26T10:32:10.948Z,65.80
2018-12-26T10:34:45.305Z,66.20
2018-12-26T10:37:17.595Z,59.40
2018-12-26T10:39:49.040Z,61.60
2018-12-26T10:42:21.033Z,63.60
2018-12-26T10:44:52.276Z,53.80
2018-12-26T10:47:23.727Z,60.60
2018-12-26T10:49:56.846Z,59.20
2018-12-26T10:52:28.632Z,61.80
2018-12-26T10:55:03.246Z,65.80
2018-12-26T10:57:35.977Z,62.20
2018-12-26T11:00:08.806Z,58.20
2018-12-26T11:02:40.778Z,56.20
2018-12-26T11:05:12.246Z,64.80
2018-12-26T11:07:43.952Z,61.20
2018-12-26T11:10:16.531Z,67.20
2018-12-26T11:12:47.806Z,56.80
2018-12-26T11:15:19.180Z,64.00
2018-12-26T11:17:51.132Z,62.60
2018-12-26T11:20:23.180Z,62.60
2018-12-26T11:22:55.190Z,60.80
2018-12-26T11:25:26.937Z,57.20
2018-12-26T11:27:58.046Z,58.60
2018-12-26T11:30:29.064Z,60.60
2018-12-26T11:33:01.509Z,62.00
2018-12-26T11:35:32.807Z,59.60
2018-12-26T11:38:04.284Z,57.40
2018-12-26T11:40:35.518Z,64.80
2018-12-26T11:43:07.001Z,57.40
2018-12-26T11:45:38.625Z,64.40
2018-12-26T11:48:10.509Z,64.00
2018-12-26T11:50:41.757Z,64.80
2018-12-26T11:53:13.101Z,61.40
2018-12-26T11:55:44.520Z,67.00
2018-12-26T11:58:16.367Z,60.40
2018-12-26T12:00:47.899Z,63.80
2018-12-26T12:03:19.778Z,64.20
2018-12-26T12:05:51.177Z,69.60
2018-12-26T12:08:22.771Z,64.80
2018-12-26T12:10:54.216Z,66.20
2018-12-26T12:13:25.864Z,61.00
2018-12-26T12:15:57.120Z,67.00
2018-12-26T12:18:28.305Z,70.00
2018-12-26T12:21:00.226Z,68.40
2018-12-26T12:23:32.101Z,71.40
2018-12-26T12:26:03.269Z,65.60
2018-12-26T12:28:36.377Z,68.60
2018-12-26T12:31:11.977Z,74.60
2018-12-26T12:33:44.559Z,76.60
2018-12-26T12:36:28.550Z,63.40
2018-12-26T12:39:01.257Z,84.80
2018-12-26T12:41:34.446Z,92.80
2018-12-26T12:44:05.970Z,100.00
2018-12-26T12:46:37.288Z,97.20
2018-12-26T12:49:14.082Z,89.80
2018-12-26T12:51:52.120Z,97.20
2018-12-26T12:54:24.199Z,100.80
2018-12-26T12:56:59.582Z,91.20
2018-12-26T12:59:32.556Z,96.80
2018-12-26T13:02:03.806Z,83.40
2018-12-26T13:04:37.839Z,102.80
2018-12-26T13:07:09.250Z,98.00
2018-12-26T13:09:40.735Z,98.20
2018-12-26T13:12:12.106Z,94.60
2018-12-26T13:14:43.280Z,95.50
2018-12-26T13:17:14.472Z,99.20
2018-12-26T13:19:46.332Z,96.40
2018-12-26T13:22:18.091Z,100.50
2018-12-26T13:24:49.993Z,95.25
2018-12-26T13:27:21.250Z,94.00
2018-12-26T13:29:53.846Z,96.50
2018-12-26T13:32:25.345Z,104.25
2018-12-26T13:34:59.414Z,101.50
2018-12-26T13:37:42.285Z,93.50
2018-12-26T13:40:13.576Z,102.00
2018-12-26T13:42:44.805Z,99.75
2018-12-26T13:45:16.498Z,98.00
2018-12-26T13:47:47.714Z,109.25
2018-12-26T13:50:19.703Z,118.50
2018-12-26T13:52:51.325Z,121.25
2018-12-26T13:55:22.917Z,112.25
2018-12-26T13:57:54.119Z,119.75
2018-12-26T14:00:25.846Z,132.00
2018-12-26T14:02:57.000Z,117.75
2018-12-26T14:05:28.986Z,128.00
2018-12-26T14:08:00.585Z,126.00
2018-12-26T14:10:31.773Z,132.00
2018-12-26T14:13:04.145Z,143.25
2018-12-26T14:15:44.397Z,147.00
2018-12-26T14:18:20.917Z,144.50
2018-12-26T14:20:53.279Z,143.00
2018-12-26T14:23:25.004Z,142.50
2018-12-26T14:25:56.637Z,152.75
2018-12-26T14:28:29.113Z,154.50
2018-12-26T14:31:00.967Z,155.25
2018-12-26T14:33:33.827Z,168.75
2018-12-26T14:36:05.651Z,160.00
2018-12-26T14:38:37.161Z,172.75
2018-12-26T14:41:08.434Z,169.25
2018-12-26T14:43:40.002Z,167.75
2018-12-26T14:46:11.158Z,164.25
2018-12-26T14:48:42.451Z,162.00
2018-12-26T14:51:13.808Z,160.00
2018-12-26T14:53:49.464Z,155.50
2018-12-26T14:56:23.267Z,157.75
2018-12-26T14:58:54.649Z,160.75
2018-12-26T15:01:26.016Z,147.75
2018-12-26T15:03:57.149Z,149.75
2018-12-26T15:06:28.862Z,155.75
2018-12-26T15:09:00.378Z,165.75
2018-12-26T15:11:32.354Z,153.25
2018-12-26T15:14:03.612Z,155.50
2018-12-26T15:16:34.896Z,161.50
2018-12-26T15:19:25.125Z,178.25
2018-12-26T15:21:56.493Z,189.50
2018-12-26T15:24:28.561Z,214.50
2018-12-26T15:27:00.157Z,197.25
2018-12-26T15:29:31.392Z,186.25
2018-12-26T15:32:03.054Z,171.75
2018-12-26T15:34:34.338Z,169.50
2018-12-26T15:37:06.201Z,167.75
2018-12-26T15:39:37.668Z,174.00
2018-12-26T15:42:09.286Z,183.25
2018-12-26T15:44:40.438Z,185.00
2018-12-26T15:47:12.784Z,188.75
2018-12-26T15:49:43.966Z,198.75
2018-12-26T15:52:15.780Z,193.50
2018-12-26T15:54:46.929Z,188.50
2018-12-26T15:57:18.310Z,188.50
2018-12-26T15:59:49.626Z,205.25
2018-12-26T16:02:21.333Z,196.00
2018-12-26T16:04:52.484Z,197.25
2018-12-26T16:07:24.388Z,207.75
2018-12-26T16:09:55.847Z,198.25
2018-12-26T16:12:27.623Z,192.50
2018-12-26T16:14:59.035Z,205.50
2018-12-26T16:17:30.820Z,208.00
2018-12-26T16:20:02.219Z,207.75
2018-12-26T16:22:33.813Z,206.25
2018-12-26T16:25:05.453Z,211.50
2018-12-26T16:27:36.898Z,201.75
2018-12-26T16:30:10.009Z,203.00
2018-12-26T16:32:41.298Z,209.00
2018-12-26T16:35:12.834Z,201.00
2018-12-26T16:37:44.655Z,206.25
2018-12-26T16:40:16.219Z,225.40
2018-12-26T16:42:48.186Z,197.75
2018-12-26T16:45:19.415Z,219.00
2018-12-26T16:47:50.822Z,210.25
2018-12-26T16:50:26.979Z,223.50
2018-12-26T16:52:55.551Z,234.40
2018-12-26T16:55:26.833Z,211.00
2018-12-26T16:57:58.294Z,210.00
2018-12-26T17:00:29.479Z,216.00
2018-12-26T17:03:00.977Z,223.75
2018-12-26T17:05:32.465Z,214.25
2018-12-26T17:08:04.530Z,221.00
2018-12-26T17:10:36.040Z,209.50
2018-12-26T17:13:07.837Z,213.00
2018-12-26T17:15:39.036Z,219.40
2018-12-26T17:18:10.642Z,214.25
2018-12-26T17:20:42.278Z,220.80
2018-12-26T17:23:14.027Z,225.60
2018-12-26T17:25:45.303Z,215.00
2018-12-26T17:28:17.296Z,216.40
2018-12-26T17:30:48.607Z,220.60
2018-12-26T17:33:20.250Z,233.40
2018-12-26T17:35:51.799Z,226.80
2018-12-26T17:38:23.704Z,236.60
2018-12-26T17:40:55.200Z,224.00
2018-12-26T17:43:27.706Z,214.20
2018-12-26T17:45:59.223Z,224.40
2018-12-26T17:48:34.029Z,220.60
2018-12-26T17:51:19.520Z,242.20
2018-12-26T17:54:29.395Z,228.60
2018-12-26T17:57:06.612Z,232.40
2018-12-26T17:59:45.900Z,232.20
2018-12-26T18:02:25.116Z,231.60
2018-12-26T18:04:56.501Z,253.80
2018-12-26T18:07:27.800Z,257.40
2018-12-26T18:09:59.476Z,246.00
2018-12-26T18:12:35.963Z,246.20
2018-12-26T18:15:10.517Z,230.60
2018-12-26T18:17:41.813Z,254.00
2018-12-26T18:20:13.476Z,249.20
2018-12-26T18:22:45.188Z,257.60
2018-12-26T18:25:16.873Z,269.80
2018-12-26T18:27:48.677Z,259.00
2018-12-26T18:30:21.171Z,265.60
2018-12-26T18:32:53.219Z,265.20
2018-12-26T18:35:24.464Z,269.00
2018-12-26T18:37:56.003Z,260.60
2018-12-26T18:40:28.053Z,249.60
2018-12-26T18:42:59.529Z,252.40
2018-12-26T18:45:30.900Z,262.20
2018-12-26T18:48:02.458Z,260.83
2018-12-26T18:50:34.337Z,270.50
2018-12-26T18:53:05.962Z,254.00
2018-12-26T18:55:37.081Z,250.50
2018-12-26T18:58:08.611Z,257.40
2018-12-26T19:00:40.007Z,267.50
2018-12-26T19:03:11.603Z,269.60
2018-12-26T19:05:43.467Z,270.00
2018-12-26T19:08:14.755Z,264.40
2018-12-26T19:10:46.443Z,253.60
2018-12-26T19:13:18.436Z,267.60
2018-12-26T19:15:49.695Z,259.60
2018-12-26T19:18:21.213Z,271.80
2018-12-26T19:20:52.612Z,252.00
2018-12-26T19:23:24.049Z,261.80
2018-12-26T19:25:55.191Z,273.60
2018-12-26T19:28:27.346Z,255.40
2018-12-26T19:30:59.750Z,256.80
2018-12-26T19:33:31.495Z,266.20
2018-12-26T19:36:04.369Z,266.40
2018-12-26T19:38:35.732Z,260.60
2018-12-26T19:41:07.698Z,260.40
2018-12-26T19:43:40.805Z,268.40
2018-12-26T19:46:12.282Z,253.20
2018-12-26T19:48:43.981Z,263.40
2018-12-26T19:51:15.301Z,260.40
2018-12-26T19:53:53.519Z,260.67
2018-12-26T19:56:25.085Z,234.67
2018-12-26T19:58:56.696Z,263.60
2018-12-26T20:01:29.506Z,252.60
2018-12-26T20:04:01.150Z,248.83
2018-12-26T20:06:32.487Z,257.00
2018-12-26T20:09:04.427Z,259.50
2018-12-26T20:11:38.505Z,264.00
2018-12-26T20:14:09.554Z,263.00
2018-12-26T20:16:40.861Z,246.00
2018-12-26T20:19:12.428Z,266.67
2018-12-26T20:21:43.760Z,256.67
2018-12-26T20:24:15.238Z,245.67
2018-12-26T20:26:46.886Z,254.40
2018-12-26T20:29:18.702Z,247.40
2018-12-26T20:31:56.865Z,267.60
2018-12-26T20:34:23.190Z,255.40
2018-12-26T20:36:54.910Z,249.17
2018-12-26T20:39:26.604Z,258.20
2018-12-26T20:41:58.704Z,250.60
2018-12-26T20:44:30.101Z,228.80
2018-12-26T20:47:01.708Z,250.20
2018-12-26T20:49:32.990Z,247.20
2018-12-26T20:52:04.672Z,252.20
2018-12-26T20:54:36.394Z,223.20
2018-12-26T20:57:07.876Z,235.80
2018-12-26T20:59:39.380Z,231.80
2018-12-26T21:02:11.022Z,245.60
2018-12-26T21:04:42.265Z,233.00
2018-12-26T21:07:13.518Z,237.60
2018-12-26T21:09:44.978Z,240.40
2018-12-26T21:12:16.954Z,246.20
2018-12-26T21:14:48.297Z,239.80
2018-12-26T21:17:19.696Z,233.60
2018-12-26T21:19:50.999Z,235.20
2018-12-26T21:22:22.471Z,250.20
2018-12-26T21:24:54.165Z,233.60
2018-12-26T21:27:25.484Z,233.60
2018-12-26T21:29:57.164Z,229.40
2018-12-26T21:32:28.759Z,240.40
2018-12-26T21:35:00.269Z,232.80
2018-12-26T21:37:31.806Z,235.20
2018-12-26T21:40:03.171Z,233.00
2018-12-26T21:42:35.283Z,225.00
2018-12-26T21:45:07.340Z,237.40
2018-12-26T21:47:39.090Z,229.80
2018-12-26T21:50:12.586Z,251.80
2018-12-26T21:52:43.931Z,242.80
2018-12-26T21:55:15.103Z,238.20
2018-12-26T21:57:46.587Z,234.40
2018-12-26T22:00:18.380Z,246.80
2018-12-26T22:02:49.919Z,235.60
2018-12-26T22:05:21.482Z,224.60
2018-12-26T22:07:52.801Z,244.60
2018-12-26T22:10:24.068Z,242.80
2018-12-26T22:12:56.143Z,231.20
2018-12-26T22:15:27.758Z,250.60
2018-12-26T22:17:58.991Z,222.20
2018-12-26T22:20:30.289Z,234.40
2018-12-26T22:23:01.688Z,233.00
2018-12-26T22:25:33.351Z,234.20
2018-12-26T22:28:05.039Z,222.20
2018-12-26T22:30:37.234Z,241.00
2018-12-26T22:33:09.569Z,231.80
2018-12-26T22:35:41.158Z,234.80
2018-12-26T22:38:12.402Z,242.60
2018-12-26T22:40:43.873Z,226.60
2018-12-26T22:43:15.995Z,204.60
2018-12-26T22:45:47.329Z,221.00
2018-12-26T22:48:18.600Z,227.00
2018-12-26T22:50:50.159Z,232.80
2018-12-26T22:53:21.562Z,233.20
2018-12-26T22:55:52.856Z,234.40
2018-12-26T22:58:24.456Z,236.00
2018-12-26T23:00:55.706Z,226.80
2018-12-26T23:03:27.498Z,202.60
2018-12-26T23:05:58.973Z,225.60
2018-12-26T23:08:30.513Z,223.75
2018-12-26T23:11:01.983Z,219.00
2018-12-26T23:13:33.852Z,219.75
2018-12-26T23:16:05.400Z,224.50
2018-12-26T23:18:36.832Z,208.00
2018-12-26T23:21:08.066Z,231.00
2018-12-26T23:23:39.322Z,222.00
2018-12-26T23:26:10.869Z,221.00
2018-12-26T23:28:42.577Z,222.75
2018-12-26T23:31:14.498Z,209.40
2018-12-26T23:33:45.900Z,197.80
2018-12-26T23:36:17.443Z,217.20
2018-12-26T23:38:49.228Z,216.80
2018-12-26T23:41:20.738Z,218.00
2018-12-26T23:43:53.075Z,192.80
2018-12-26T23:46:24.604Z,199.20
2018-12-26T23:48:56.113Z,198.50
2018-12-26T23:51:27.316Z,202.00
2018-12-26T23:53:59.263Z,203.50
2018-12-26T23:56:30.864Z,192.00
2018-12-26T23:59:02.287Z,193.75
